Coburg, Germany
Current Conditions -  °F | °C
As of 5:50 PM on Monday 22 Dec 2014 (Local Time) from EDQM Reporting Station
Drizzle Drizzle  
Wind Chill: 31°   Ceiling: 600
Heat Index: 39°   Visibility: 2.1mi
Dew Point: 36°   Wind: 15mph
Humidity: 87%   Direction: 230°SW
Pressure: 30.09"   Gusts: 28mph
Location:  50.26°N, 10.97°E
Report Text: EDQM 221650Z 23013G24KT 210V270 3400 -DZ BR BKN006 OVC00904/02 Q1019
Loading
Personal Weather Stations






























Interactive Weather Map New forecast layout! Learn more

10-Day Weather Forecast

Advertisements
Track Severe Weather on mobile